N950P ENFG-ENGM
Flight info
| Callsign | N950P |
|---|---|
| Flight time | N/A |
| Altitude | 7000 |
| Route | ADOPI |
| Aircraft | K100/L-SBDGRY/S |
Departure
| Time | N/A |
|---|---|
| Airport | ENFG |
Arrival
| Time | 2026-04-30 13:58 |
|---|---|
| Airport | Oslo-Gardermoen International Airport (ENGM) |
| Time | Latitude | Longitude | Altitude | Speed | Heading |
|---|---|---|---|---|---|
| 2026-04-30 13:21 | 61.00753 | 9.29454 | 2699 ft | 0 kts | 149° |
| 2026-04-30 13:28 | 61.00744 | 9.29511 | 2699 ft | 12 kts | 84° |
| 2026-04-30 13:29 | 61.00914 | 9.29585 | 2700 ft | 22 kts | 329° |
| 2026-04-30 13:29 | 61.01224 | 9.29213 | 2708 ft | 29 kts | 330° |
| 2026-04-30 13:30 | 61.01778 | 9.28533 | 2713 ft | 9 kts | 244° |
| 2026-04-30 13:31 | 61.01437 | 9.28943 | 2703 ft | 85 kts | 150° |
| 2026-04-30 13:31 | 60.99751 | 9.31249 | 3562 ft | 107 kts | 149° |
| 2026-04-30 13:32 | 60.98500 | 9.32949 | 4391 ft | 110 kts | 150° |
| 2026-04-30 13:32 | 60.97599 | 9.35447 | 5192 ft | 111 kts | 124° |
| 2026-04-30 13:33 | 60.96820 | 9.38246 | 6001 ft | 116 kts | 124° |
| 2026-04-30 13:33 | 60.95996 | 9.41105 | 6844 ft | 118 kts | 124° |
| 2026-04-30 13:34 | 60.95528 | 9.42693 | 6939 ft | 146 kts | 127° |
| 2026-04-30 13:34 | 60.93741 | 9.48969 | 6935 ft | 182 kts | 121° |
| 2026-04-30 13:35 | 60.93115 | 9.51232 | 6937 ft | 183 kts | 122° |
| 2026-04-30 13:35 | 60.91815 | 9.55782 | 6937 ft | 185 kts | 122° |
| 2026-04-30 13:36 | 60.90517 | 9.60312 | 6942 ft | 184 kts | 122° |
| 2026-04-30 13:36 | 60.89864 | 9.62588 | 6941 ft | 186 kts | 122° |
| 2026-04-30 13:36 | 60.88549 | 9.67166 | 6937 ft | 186 kts | 122° |
| 2026-04-30 13:37 | 60.87889 | 9.69448 | 6937 ft | 185 kts | 122° |
| 2026-04-30 13:37 | 60.86572 | 9.74024 | 6940 ft | 186 kts | 122° |
| 2026-04-30 13:38 | 60.85248 | 9.78603 | 6938 ft | 186 kts | 122° |
| 2026-04-30 13:38 | 60.84585 | 9.80891 | 6939 ft | 187 kts | 123° |
| 2026-04-30 13:38 | 60.83263 | 9.85451 | 6937 ft | 186 kts | 123° |
| 2026-04-30 13:39 | 60.81948 | 9.89985 | 6936 ft | 185 kts | 123° |
| 2026-04-30 13:39 | 60.80624 | 9.94530 | 6931 ft | 186 kts | 122° |
| 2026-04-30 13:40 | 60.79966 | 9.96799 | 6931 ft | 185 kts | 123° |
| 2026-04-30 13:40 | 60.79305 | 9.99064 | 6937 ft | 186 kts | 123° |
| 2026-04-30 13:40 | 60.78643 | 10.01329 | 6934 ft | 185 kts | 123° |
| 2026-04-30 13:40 | 60.77978 | 10.03596 | 6934 ft | 186 kts | 123° |
| 2026-04-30 13:41 | 60.77314 | 10.05871 | 6933 ft | 186 kts | 123° |
| 2026-04-30 13:41 | 60.76647 | 10.08148 | 6922 ft | 187 kts | 123° |
| 2026-04-30 13:41 | 60.75979 | 10.10426 | 6930 ft | 187 kts | 123° |
| 2026-04-30 13:41 | 60.75315 | 10.12701 | 6923 ft | 186 kts | 123° |
| 2026-04-30 13:42 | 60.74647 | 10.14968 | 6921 ft | 186 kts | 123° |
| 2026-04-30 13:42 | 60.73982 | 10.17233 | 6922 ft | 186 kts | 123° |
| 2026-04-30 13:42 | 60.72653 | 10.21742 | 6925 ft | 185 kts | 123° |
| 2026-04-30 13:43 | 60.71996 | 10.23972 | 6923 ft | 185 kts | 123° |
| 2026-04-30 13:43 | 60.71327 | 10.26230 | 6928 ft | 187 kts | 123° |
| 2026-04-30 13:43 | 60.70656 | 10.28510 | 6919 ft | 187 kts | 123° |
| 2026-04-30 13:43 | 60.69976 | 10.30812 | 6922 ft | 187 kts | 123° |
| 2026-04-30 13:44 | 60.69304 | 10.33083 | 6918 ft | 187 kts | 123° |
| 2026-04-30 13:44 | 60.68641 | 10.35316 | 6919 ft | 187 kts | 123° |
| 2026-04-30 13:44 | 60.67965 | 10.37587 | 6923 ft | 188 kts | 123° |
| 2026-04-30 13:44 | 60.67288 | 10.39872 | 6915 ft | 188 kts | 123° |
| 2026-04-30 13:45 | 60.65939 | 10.44408 | 6919 ft | 187 kts | 123° |
| 2026-04-30 13:45 | 60.65260 | 10.46679 | 6918 ft | 187 kts | 123° |
| 2026-04-30 13:45 | 60.64583 | 10.48945 | 6917 ft | 187 kts | 123° |
| 2026-04-30 13:46 | 60.63913 | 10.51207 | 6925 ft | 187 kts | 123° |
| 2026-04-30 13:46 | 60.63237 | 10.53473 | 6920 ft | 187 kts | 124° |
| 2026-04-30 13:46 | 60.62556 | 10.55735 | 6916 ft | 187 kts | 123° |
| 2026-04-30 13:46 | 60.61882 | 10.57999 | 6918 ft | 186 kts | 123° |
| 2026-04-30 13:47 | 60.61208 | 10.60253 | 6921 ft | 187 kts | 123° |
| 2026-04-30 13:47 | 60.60530 | 10.62504 | 6921 ft | 187 kts | 123° |
| 2026-04-30 13:47 | 60.59853 | 10.64767 | 6920 ft | 187 kts | 123° |
| 2026-04-30 13:47 | 60.59172 | 10.67025 | 6927 ft | 188 kts | 123° |
| 2026-04-30 13:48 | 60.58495 | 10.69291 | 6925 ft | 187 kts | 123° |
| 2026-04-30 13:48 | 60.57814 | 10.71551 | 6920 ft | 188 kts | 124° |
| 2026-04-30 13:48 | 60.57129 | 10.73823 | 6916 ft | 188 kts | 123° |
| 2026-04-30 13:48 | 60.56444 | 10.76089 | 6924 ft | 188 kts | 123° |
| 2026-04-30 13:49 | 60.55761 | 10.78351 | 6922 ft | 187 kts | 123° |
| 2026-04-30 13:49 | 60.55076 | 10.80610 | 6921 ft | 188 kts | 124° |
| 2026-04-30 13:49 | 60.54391 | 10.82868 | 6919 ft | 187 kts | 123° |
| 2026-04-30 13:49 | 60.53714 | 10.85114 | 6915 ft | 186 kts | 123° |
| 2026-04-30 13:50 | 60.53035 | 10.87357 | 6928 ft | 188 kts | 123° |
| 2026-04-30 13:50 | 60.51671 | 10.91845 | 6919 ft | 188 kts | 123° |
| 2026-04-30 13:50 | 60.50988 | 10.94098 | 6925 ft | 186 kts | 124° |
| 2026-04-30 13:51 | 60.50308 | 10.96331 | 6920 ft | 186 kts | 123° |
| 2026-04-30 13:51 | 60.49628 | 10.98562 | 6922 ft | 186 kts | 123° |
| 2026-04-30 13:51 | 60.48940 | 11.00816 | 6839 ft | 191 kts | 123° |
| 2026-04-30 13:51 | 60.48223 | 11.03152 | 6612 ft | 200 kts | 124° |
| 2026-04-30 13:52 | 60.47495 | 11.05541 | 6336 ft | 196 kts | 123° |
| 2026-04-30 13:52 | 60.46785 | 11.07869 | 6087 ft | 193 kts | 125° |
| 2026-04-30 13:52 | 60.45898 | 11.09856 | 5832 ft | 188 kts | 140° |
| 2026-04-30 13:52 | 60.44955 | 11.11665 | 5592 ft | 187 kts | 138° |
| 2026-04-30 13:53 | 60.44022 | 11.13519 | 5332 ft | 188 kts | 137° |
| 2026-04-30 13:53 | 60.43089 | 11.15372 | 5084 ft | 186 kts | 137° |
| 2026-04-30 13:53 | 60.42160 | 11.17191 | 4841 ft | 185 kts | 139° |
| 2026-04-30 13:53 | 60.41519 | 11.18316 | 4673 ft | 184 kts | 148° |
| 2026-04-30 13:54 | 60.40359 | 11.19274 | 4434 ft | 181 kts | 171° |
| 2026-04-30 13:54 | 60.39111 | 11.19288 | 4189 ft | 179 kts | 192° |
| 2026-04-30 13:54 | 60.37934 | 11.18592 | 3965 ft | 175 kts | 198° |
| 2026-04-30 13:54 | 60.36763 | 11.17958 | 3741 ft | 174 kts | 196° |
| 2026-04-30 13:55 | 60.35597 | 11.17297 | 3518 ft | 174 kts | 199° |
| 2026-04-30 13:55 | 60.34430 | 11.16598 | 3277 ft | 175 kts | 198° |
| 2026-04-30 13:55 | 60.33261 | 11.15929 | 3045 ft | 175 kts | 197° |
| 2026-04-30 13:55 | 60.32097 | 11.15245 | 2823 ft | 174 kts | 197° |
| 2026-04-30 13:56 | 60.30934 | 11.14532 | 2576 ft | 176 kts | 199° |
| 2026-04-30 13:56 | 60.29770 | 11.13843 | 2359 ft | 172 kts | 192° |
| 2026-04-30 13:56 | 60.28583 | 11.13352 | 2123 ft | 175 kts | 197° |
| 2026-04-30 13:56 | 60.27437 | 11.12563 | 1895 ft | 174 kts | 197° |
| 2026-04-30 13:57 | 60.26293 | 11.11843 | 1658 ft | 176 kts | 197° |
| 2026-04-30 13:57 | 60.25077 | 11.11155 | 1417 ft | 181 kts | 196° |
| 2026-04-30 13:57 | 60.23875 | 11.10478 | 1179 ft | 182 kts | 197° |
| 2026-04-30 13:57 | 60.22731 | 11.09707 | 940 ft | 158 kts | 197° |
| 2026-04-30 13:58 | 60.21733 | 11.09234 | 734 ft | 137 kts | 197° |
| 2026-04-30 13:58 | 60.20424 | 11.08483 | 675 ft | 45 kts | 193° |
| 2026-04-30 13:58 | 60.20291 | 11.08317 | 674 ft | 22 kts | 272° |
| 2026-04-30 13:59 | 60.20325 | 11.08065 | 673 ft | 19 kts | 282° |
| 2026-04-30 13:59 | 60.20434 | 11.07942 | 673 ft | 24 kts | 17° |
| 2026-04-30 13:59 | 60.20574 | 11.07988 | 672 ft | 18 kts | 293° |
| 2026-04-30 13:59 | 60.20586 | 11.07918 | 672 ft | 0 kts | 289° |